Time;durP1;ratioP1;P1;durP2;ratioP2;P2;SDS_P1;SDS_P2;PMS_P1;PMS_P2;Temp;Humidity;BMP_temperature;BMP_pressure;BME280_temperature;BME280_humidity;BME280_pressure;Samples;Min_cycle;Max_cycle;Signal;HPM_P1;HPM_P2
2022/11/11 00:02:30;;;;;;;9.43;3.20;;;;;;;;;;5062160;28;20067;-61
2022/11/11 00:05:14;;;;;;;7.03;2.93;;;;;;;;;;5074542;28;20023;-62
2022/11/11 00:07:58;;;;;;;6.70;2.80;;;;;;;;;;5068753;28;20024;-63
2022/11/11 00:10:42;;;;;;;10.83;3.00;;;;;;;;;;5066078;28;20021;-61
2022/11/11 00:13:26;;;;;;;9.10;3.07;;;;;;;;;;5067944;28;20032;-62
2022/11/11 00:16:10;;;;;;;12.13;3.50;;;;;;;;;;5068364;28;20020;-62
2022/11/11 00:25:06;;;;;;;9.57;2.83;;;;;;;;;;5068288;28;20388;-62
2022/11/11 00:27:49;;;;;;;8.63;2.80;;;;;;;;;;5068323;28;20017;-62
2022/11/11 00:30:33;;;;;;;10.77;2.90;;;;;;;;;;5068950;28;20032;-62
2022/11/11 00:33:17;;;;;;;9.33;2.60;;;;;;;;;;5066337;28;20036;-63
2022/11/11 00:36:01;;;;;;;7.87;2.93;;;;;;;;;;5067518;28;20025;-63
2022/11/11 00:38:44;;;;;;;9.43;3.00;;;;;;;;;;5067014;28;20107;-62
2022/11/11 00:41:28;;;;;;;10.83;3.00;;;;;;;;;;5066686;28;20107;-63
2022/11/11 00:44:12;;;;;;;8.10;3.10;;;;;;;;;;5070140;28;20028;-62
2022/11/11 00:53:03;;;;;;;8.93;3.27;;;;;;;;;;5072409;28;20043;-62
2022/11/11 00:55:56;;;;;;;10.70;3.50;;;;;;;;;;5070335;28;20515;-62
2022/11/11 00:58:40;;;;;;;11.90;3.70;;;;;;;;;;5068826;28;20086;-62
2022/11/11 01:01:24;;;;;;;9.87;4.00;;;;;;;;;;5067230;28;20033;-61
2022/11/11 01:04:08;;;;;;;11.63;3.53;;;;;;;;;;5072916;28;20096;-62
2022/11/11 01:06:51;;;;;;;10.97;3.60;;;;;;;;;;5074705;28;20031;-62
2022/11/11 01:09:35;;;;;;;12.43;3.63;;;;;;;;;;5069128;28;20040;-63
2022/11/11 01:12:19;;;;;;;16.83;4.27;;;;;;;;;;5068646;28;20043;-61
2022/11/11 01:15:03;;;;;;;10.63;3.80;;;;;;;;;;5075494;28;20032;-62
2022/11/11 01:17:47;;;;;;;11.50;4.30;;;;;;;;;;5070022;28;20032;-62
2022/11/11 01:20:30;;;;;;;11.90;3.70;;;;;;;;;;5064030;28;20495;-61
2022/11/11 01:23:14;;;;;;;13.40;3.63;;;;;;;;;;5068580;28;20048;-61
2022/11/11 01:26:01;;;;;;;15.23;4.80;;;;;;;;;;5072955;28;20028;-62
2022/11/11 01:28:45;;;;;;;10.57;3.67;;;;;;;;;;5070789;28;20491;-64
2022/11/11 01:31:29;;;;;;;12.97;3.90;;;;;;;;;;5071686;28;20040;-62
2022/11/11 01:34:12;;;;;;;14.03;4.00;;;;;;;;;;5061646;28;20044;-62
2022/11/11 01:36:56;;;;;;;17.30;4.50;;;;;;;;;;5072691;28;20031;-62
2022/11/11 01:39:40;;;;;;;10.87;4.10;;;;;;;;;;5070596;28;20021;-62
2022/11/11 01:42:24;;;;;;;9.70;3.80;;;;;;;;;;5074188;28;20056;-62
2022/11/11 01:45:07;;;;;;;14.27;3.93;;;;;;;;;;5070444;28;20020;-62
2022/11/11 01:50:54;;;;;;;14.93;5.23;;;;;;;;;;5064572;28;20491;-62
2022/11/11 01:53:38;;;;;;;17.20;4.90;;;;;;;;;;5069387;28;20029;-61
2022/11/11 01:56:21;;;;;;;11.00;4.13;;;;;;;;;;5072162;28;20086;-61
2022/11/11 01:59:05;;;;;;;14.97;4.40;;;;;;;;;;5072071;28;20500;-62
2022/11/11 02:01:49;;;;;;;15.70;4.93;;;;;;;;;;5069203;28;20025;-62
2022/11/11 02:07:36;;;;;;;9.43;4.27;;;;;;;;;;5066541;28;20043;-62
2022/11/11 02:10:19;;;;;;;14.03;4.37;;;;;;;;;;5068498;28;20047;-62
2022/11/11 02:16:06;;;;;;;14.40;4.80;;;;;;;;;;5066569;28;20377;-62
2022/11/11 02:18:50;;;;;;;13.90;4.90;;;;;;;;;;5073119;28;20032;-62
2022/11/11 02:21:34;;;;;;;14.63;4.43;;;;;;;;;;5070844;28;20466;-62
2022/11/11 02:24:18;;;;;;;12.40;4.33;;;;;;;;;;5068815;28;20032;-62
2022/11/11 02:27:01;;;;;;;15.33;4.83;;;;;;;;;;5070948;28;20059;-62
2022/11/11 02:29:45;;;;;;;11.27;4.60;;;;;;;;;;5072935;28;20102;-62
2022/11/11 02:32:29;;;;;;;12.33;5.07;;;;;;;;;;5064860;28;20039;-62
2022/11/11 02:35:13;;;;;;;12.37;5.00;;;;;;;;;;5072451;28;20040;-63
2022/11/11 02:37:57;;;;;;;14.67;4.43;;;;;;;;;;5065110;28;20032;-62
2022/11/11 02:43:43;;;;;;;12.17;5.17;;;;;;;;;;5072286;28;20059;-62
2022/11/11 02:46:27;;;;;;;12.87;5.30;;;;;;;;;;5067564;28;20027;-62
2022/11/11 02:49:11;;;;;;;15.03;5.53;;;;;;;;;;5065634;28;20028;-62
2022/11/11 02:51:54;;;;;;;10.70;4.43;;;;;;;;;;5072053;28;20042;-62
2022/11/11 02:54:39;;;;;;;11.53;5.20;;;;;;;;;;5068047;28;20090;-62
2022/11/11 02:57:23;;;;;;;10.47;4.77;;;;;;;;;;5064556;28;20052;-61
2022/11/11 03:00:07;;;;;;;11.07;4.53;;;;;;;;;;5070117;28;20020;-63
2022/11/11 03:02:51;;;;;;;14.40;4.77;;;;;;;;;;5069331;28;20055;-61
2022/11/11 03:05:35;;;;;;;10.93;4.73;;;;;;;;;;5067905;28;20043;-63
2022/11/11 03:08:18;;;;;;;14.43;5.00;;;;;;;;;;5066950;28;20044;-63
2022/11/11 03:11:02;;;;;;;12.07;4.90;;;;;;;;;;5069858;28;20080;-61
2022/11/11 03:13:46;;;;;;;11.20;4.60;;;;;;;;;;5070452;28;20107;-61
2022/11/11 03:19:46;;;;;;;13.40;5.43;;;;;;;;;;5031816;28;20044;-61
2022/11/11 03:22:30;;;;;;;13.07;5.43;;;;;;;;;;5065131;28;20519;-62
2022/11/11 03:28:16;;;;;;;10.53;5.13;;;;;;;;;;5067697;28;20078;-61
2022/11/11 03:31:00;;;;;;;13.77;5.50;;;;;;;;;;5064903;28;20033;-61
2022/11/11 03:33:44;;;;;;;15.23;5.13;;;;;;;;;;5070979;28;20123;-62
2022/11/11 03:38:14;;;;;;;14.93;5.43;;;;;;;;;;5069221;28;20036;-61
2022/11/11 03:39:32;;;;;;;13.80;5.27;;;;;;;;;;5074272;28;20520;-63
2022/11/11 03:42:16;;;;;;;15.03;5.77;;;;;;;;;;5070728;28;20041;-63
2022/11/11 03:44:59;;;;;;;14.27;5.87;;;;;;;;;;5061919;28;20056;-63
2022/11/11 03:47:43;;;;;;;14.67;5.80;;;;;;;;;;5068221;28;20029;-63
2022/11/11 03:50:27;;;;;;;14.37;6.30;;;;;;;;;;5069772;28;20083;-63
2022/11/11 03:53:11;;;;;;;16.43;6.03;;;;;;;;;;5071593;28;20029;-63
2022/11/11 03:55:54;;;;;;;18.93;6.10;;;;;;;;;;5065519;28;20028;-63
2022/11/11 04:11:00;;;;;;;16.07;6.83;;;;;;;;;;5070528;28;20123;-62
2022/11/11 04:16:46;;;;;;;13.77;6.47;;;;;;;;;;5065405;28;20043;-63
2022/11/11 04:22:33;;;;;;;12.93;5.83;;;;;;;;;;5066285;28;20064;-62
2022/11/11 04:31:23;;;;;;;15.13;6.27;;;;;;;;;;5066807;28;20035;-62
2022/11/11 04:34:07;;;;;;;13.10;6.00;;;;;;;;;;5073039;28;20098;-62
2022/11/11 04:36:52;;;;;;;13.40;6.60;;;;;;;;;;5069148;28;20071;-62
2022/11/11 04:42:39;;;;;;;12.53;5.87;;;;;;;;;;5069974;28;20502;-62
2022/11/11 04:45:26;;;;;;;14.97;6.40;;;;;;;;;;5063719;28;20048;-62
2022/11/11 04:48:12;;;;;;;15.80;6.70;;;;;;;;;;5063793;28;20021;-62
2022/11/11 04:50:56;;;;;;;15.50;6.97;;;;;;;;;;5069113;28;20437;-63
2022/11/11 04:53:39;;;;;;;18.67;6.97;;;;;;;;;;5067268;28;20032;-62
2022/11/11 04:59:26;;;;;;;17.07;7.17;;;;;;;;;;5066158;28;20071;-62
2022/11/11 05:05:14;;;;;;;16.43;7.13;;;;;;;;;;5062824;28;20411;-62
2022/11/11 05:11:01;;;;;;;15.93;8.00;;;;;;;;;;5067423;28;20032;-62
2022/11/11 05:22:53;;;;;;;16.53;8.57;;;;;;;;;;5063204;28;20119;-62
2022/11/11 05:25:37;;;;;;;18.50;8.43;;;;;;;;;;5065008;28;20033;-62
2022/11/11 05:28:20;;;;;;;16.00;8.80;;;;;;;;;;5062849;28;20444;-62
2022/11/11 05:31:04;;;;;;;16.97;8.73;;;;;;;;;;5061258;28;20036;-62
2022/11/11 05:33:48;;;;;;;20.20;9.83;;;;;;;;;;5066775;28;20099;-62
2022/11/11 05:36:32;;;;;;;21.23;9.40;;;;;;;;;;5066698;28;20456;-62
2022/11/11 05:39:16;;;;;;;17.13;9.30;;;;;;;;;;5066886;28;20043;-62
2022/11/11 05:42:00;;;;;;;16.33;7.87;;;;;;;;;;5066955;28;20016;-62
2022/11/11 05:44:44;;;;;;;16.43;9.40;;;;;;;;;;5068988;28;20029;-62
2022/11/11 05:47:28;;;;;;;17.47;10.10;;;;;;;;;;5070390;28;20439;-62
2022/11/11 05:50:11;;;;;;;21.40;9.37;;;;;;;;;;5067285;28;20021;-63
2022/11/11 05:52:55;;;;;;;17.43;9.53;;;;;;;;;;5070238;28;20055;-62
2022/11/11 05:55:39;;;;;;;17.27;9.53;;;;;;;;;;5068598;28;20431;-62
2022/11/11 05:58:23;;;;;;;18.83;9.90;;;;;;;;;;5071669;28;20036;-62
2022/11/11 06:01:07;;;;;;;16.73;8.57;;;;;;;;;;5062002;28;20064;-62
2022/11/11 06:03:50;;;;;;;20.97;8.40;;;;;;;;;;5064565;28;20029;-62
2022/11/11 06:06:34;;;;;;;16.90;8.43;;;;;;;;;;5069833;28;20086;-62
2022/11/11 06:09:18;;;;;;;18.10;10.07;;;;;;;;;;5069917;28;20521;-62
2022/11/11 06:12:02;;;;;;;17.47;7.67;;;;;;;;;;5069282;28;20051;-62
2022/11/11 06:14:46;;;;;;;18.50;7.93;;;;;;;;;;5068136;28;20028;-63
2022/11/11 06:17:29;;;;;;;14.37;8.10;;;;;;;;;;5067395;28;20029;-62
2022/11/11 06:20:13;;;;;;;16.47;9.13;;;;;;;;;;5068466;28;20029;-62
2022/11/11 06:22:57;;;;;;;15.57;7.77;;;;;;;;;;5069365;28;20411;-63
2022/11/11 06:28:44;;;;;;;19.73;9.90;;;;;;;;;;5067283;28;20035;-61
2022/11/11 06:31:28;;;;;;;18.73;9.60;;;;;;;;;;5065400;28;20033;-62
2022/11/11 06:34:11;;;;;;;22.97;11.10;;;;;;;;;;5070234;28;20115;-62
2022/11/11 06:36:55;;;;;;;21.40;10.17;;;;;;;;;;5069585;28;20039;-63
2022/11/11 06:39:39;;;;;;;16.43;8.57;;;;;;;;;;5066799;28;20115;-62
2022/11/11 06:42:23;;;;;;;23.47;10.63;;;;;;;;;;5068810;28;20131;-61
2022/11/11 06:45:07;;;;;;;15.33;7.77;;;;;;;;;;5068675;28;20024;-62
2022/11/11 06:47:51;;;;;;;20.53;10.90;;;;;;;;;;5069339;28;20101;-62
2022/11/11 06:50:34;;;;;;;23.77;9.57;;;;;;;;;;5069214;28;20020;-63
2022/11/11 06:53:18;;;;;;;21.67;10.17;;;;;;;;;;5066223;28;20032;-63
2022/11/11 06:56:02;;;;;;;21.77;10.00;;;;;;;;;;5070306;28;20036;-62
2022/11/11 06:58:46;;;;;;;21.47;10.67;;;;;;;;;;5046491;28;20119;-62
2022/11/11 07:01:30;;;;;;;20.20;10.90;;;;;;;;;;5070669;28;20028;-62
2022/11/11 07:04:14;;;;;;;15.83;9.57;;;;;;;;;;5065519;28;20750;-62
2022/11/11 07:06:57;;;;;;;18.40;9.53;;;;;;;;;;5064704;28;20032;-62
2022/11/11 07:09:41;;;;;;;20.87;9.83;;;;;;;;;;5066394;28;20025;-62
2022/11/11 07:12:25;;;;;;;19.17;10.13;;;;;;;;;;5066937;28;20024;-62
2022/11/11 07:15:09;;;;;;;25.23;10.80;;;;;;;;;;5070310;28;20074;-62
2022/11/11 07:17:53;;;;;;;17.60;9.17;;;;;;;;;;5073798;28;20028;-62
2022/11/11 07:20:37;;;;;;;22.07;10.73;;;;;;;;;;5059646;28;20036;-62
2022/11/11 07:23:21;;;;;;;17.83;10.13;;;;;;;;;;5066060;28;20033;-61
2022/11/11 07:26:04;;;;;;;18.43;10.20;;;;;;;;;;5061520;28;20104;-62
2022/11/11 07:28:50;;;;;;;20.33;8.33;;;;;;;;;;5057856;28;20045;-62
2022/11/11 07:31:34;;;;;;;20.53;10.57;;;;;;;;;;5069193;28;20037;-62
2022/11/11 07:34:17;;;;;;;21.17;10.77;;;;;;;;;;5066290;28;20412;-63
2022/11/11 07:37:01;;;;;;;19.50;10.57;;;;;;;;;;5067859;28;20016;-62
2022/11/11 07:39:45;;;;;;;18.57;10.83;;;;;;;;;;5066685;28;20387;-62
2022/11/11 07:42:29;;;;;;;20.47;10.40;;;;;;;;;;5071421;28;20021;-62
2022/11/11 07:45:13;;;;;;;20.33;10.57;;;;;;;;;;5064385;28;20024;-61
2022/11/11 07:47:57;;;;;;;23.90;10.97;;;;;;;;;;5069870;28;20748;-62
2022/11/11 07:50:40;;;;;;;19.17;11.00;;;;;;;;;;5068776;28;20087;-62
2022/11/11 07:53:27;;;;;;;24.20;10.30;;;;;;;;;;5069288;28;20122;-61
2022/11/11 07:56:11;;;;;;;21.80;10.23;;;;;;;;;;5068696;28;20016;-63
2022/11/11 07:58:54;;;;;;;19.57;9.57;;;;;;;;;;5068187;28;20055;-63
2022/11/11 08:01:38;;;;;;;20.17;9.60;;;;;;;;;;5070477;28;20266;-62
2022/11/11 08:04:22;;;;;;;17.30;9.77;;;;;;;;;;5069638;28;20028;-62
2022/11/11 08:07:06;;;;;;;17.20;8.30;;;;;;;;;;5070082;28;20021;-63
2022/11/11 08:09:49;;;;;;;16.97;7.83;;;;;;;;;;5068102;28;20415;-63
2022/11/11 08:15:36;;;;;;;12.50;7.10;;;;;;;;;;5068181;28;20382;-63
2022/11/11 08:18:20;;;;;;;15.97;7.60;;;;;;;;;;5067728;28;20395;-62
2022/11/11 08:21:04;;;;;;;16.80;8.00;;;;;;;;;;5067304;28;20437;-62
2022/11/11 08:23:47;;;;;;;11.17;4.83;;;;;;;;;;5070150;28;20371;-63
2022/11/11 08:26:31;;;;;;;15.07;6.50;;;;;;;;;;5065463;28;20530;-62
2022/11/11 08:29:15;;;;;;;12.30;7.00;;;;;;;;;;5070640;28;20029;-63
2022/11/11 08:31:59;;;;;;;13.70;6.83;;;;;;;;;;5064923;28;20024;-62
2022/11/11 08:34:43;;;;;;;13.67;6.47;;;;;;;;;;5062360;28;20042;-63
2022/11/11 08:37:27;;;;;;;13.77;6.27;;;;;;;;;;5070032;28;20071;-63
2022/11/11 08:40:10;;;;;;;17.37;6.20;;;;;;;;;;5067314;28;20032;-63
2022/11/11 08:42:54;;;;;;;12.77;6.40;;;;;;;;;;5065873;28;20574;-62
2022/11/11 08:45:38;;;;;;;19.77;5.27;;;;;;;;;;5068147;28;20471;-63
2022/11/11 08:48:21;;;;;;;13.40;6.33;;;;;;;;;;5069256;28;20021;-63
2022/11/11 08:51:05;;;;;;;13.07;6.57;;;;;;;;;;5066962;28;20017;-62
2022/11/11 08:53:49;;;;;;;15.40;6.57;;;;;;;;;;5070195;28;20036;-62
2022/11/11 08:56:33;;;;;;;15.53;6.40;;;;;;;;;;5073485;28;20020;-62
2022/11/11 08:59:17;;;;;;;12.07;6.03;;;;;;;;;;5070731;28;20076;-62
2022/11/11 09:02:19;;;;;;;11.77;6.20;;;;;;;;;;5066094;28;20111;-63
2022/11/11 09:05:03;;;;;;;13.27;5.80;;;;;;;;;;5063959;28;20087;-63
2022/11/11 09:07:46;;;;;;;11.30;6.13;;;;;;;;;;5061590;28;20464;-63
2022/11/11 09:10:30;;;;;;;14.30;6.17;;;;;;;;;;5066783;28;20419;-62
2022/11/11 09:13:14;;;;;;;13.37;5.10;;;;;;;;;;5070456;28;20024;-63
2022/11/11 09:15:58;;;;;;;12.87;6.17;;;;;;;;;;5072411;28;20028;-62
2022/11/11 09:18:42;;;;;;;14.43;6.33;;;;;;;;;;5065813;28;20059;-63
2022/11/11 09:21:26;;;;;;;11.80;6.03;;;;;;;;;;5070692;28;20090;-62
2022/11/11 09:24:10;;;;;;;10.80;5.70;;;;;;;;;;5070650;28;20040;-62
2022/11/11 09:26:54;;;;;;;12.37;6.33;;;;;;;;;;5073382;28;20353;-62
2022/11/11 09:29:37;;;;;;;13.60;6.07;;;;;;;;;;5072155;28;20116;-63
2022/11/11 09:32:21;;;;;;;16.20;6.10;;;;;;;;;;5074575;28;20031;-64
2022/11/11 09:35:05;;;;;;;11.07;5.60;;;;;;;;;;5075713;28;20515;-63
2022/11/11 09:37:52;;;;;;;10.63;5.10;;;;;;;;;;5072687;28;20056;-63
2022/11/11 09:40:35;;;;;;;10.23;5.47;;;;;;;;;;5070866;28;20085;-63
2022/11/11 09:43:19;;;;;;;11.10;5.83;;;;;;;;;;5071723;28;20029;-63
2022/11/11 09:46:04;;;;;;;12.37;5.83;;;;;;;;;;5073621;28;20112;-63
2022/11/11 09:48:47;;;;;;;14.30;5.60;;;;;;;;;;5073272;28;20032;-63
2022/11/11 09:51:32;;;;;;;14.60;5.50;;;;;;;;;;5076079;28;20040;-64
2022/11/11 09:54:16;;;;;;;10.80;5.10;;;;;;;;;;5074417;28;20099;-63
2022/11/11 09:56:59;;;;;;;13.53;6.27;;;;;;;;;;5072875;28;20099;-63
2022/11/11 09:59:44;;;;;;;11.70;5.67;;;;;;;;;;5073914;28;20031;-63
2022/11/11 10:02:28;;;;;;;10.90;5.03;;;;;;;;;;5069686;28;20025;-63
2022/11/11 10:05:12;;;;;;;14.17;5.30;;;;;;;;;;5070037;28;20286;-63
2022/11/11 10:07:56;;;;;;;10.60;5.00;;;;;;;;;;5069334;28;20025;-63
2022/11/11 10:10:40;;;;;;;10.83;5.03;;;;;;;;;;5066894;28;20421;-62
2022/11/11 10:13:24;;;;;;;9.63;4.70;;;;;;;;;;5072205;28;20025;-63
2022/11/11 10:16:07;;;;;;;9.97;4.90;;;;;;;;;;5072759;28;20028;-63
2022/11/11 10:18:51;;;;;;;10.13;5.17;;;;;;;;;;5071920;28;20411;-62
2022/11/11 10:21:35;;;;;;;12.00;4.63;;;;;;;;;;5072346;28;20024;-63
2022/11/11 10:24:38;;;;;;;;;;;;;;;;;;;;;
2022/11/11 10:27:22;;;;;;;8.73;4.50;;;;;;;;;;5073426;28;20032;-62
2022/11/11 10:30:06;;;;;;;9.33;4.10;;;;;;;;;;5069066;28;20780;-63
2022/11/11 10:32:50;;;;;;;9.27;4.10;;;;;;;;;;5068167;28;20028;-63
2022/11/11 10:35:33;;;;;;;10.63;4.70;;;;;;;;;;5071952;28;20421;-63
2022/11/11 10:38:17;;;;;;;12.07;4.63;;;;;;;;;;5068446;28;20032;-63
2022/11/11 10:41:01;;;;;;;12.87;4.97;;;;;;;;;;5071698;28;20039;-62
2022/11/11 10:43:48;;;;;;;11.57;4.37;;;;;;;;;;5070439;28;20032;-62
2022/11/11 10:46:31;;;;;;;10.27;4.70;;;;;;;;;;5071997;28;20061;-62
2022/11/11 10:49:15;;;;;;;11.50;3.90;;;;;;;;;;5071748;28;20035;-63
2022/11/11 10:51:59;;;;;;;10.10;4.30;;;;;;;;;;5069652;28;20040;-62
2022/11/11 10:54:43;;;;;;;10.07;4.63;;;;;;;;;;5072918;28;20076;-62
2022/11/11 10:57:26;;;;;;;12.03;4.20;;;;;;;;;;5072442;28;20028;-62
2022/11/11 11:00:10;;;;;;;11.00;4.60;;;;;;;;;;5066659;28;20427;-63
2022/11/11 11:02:55;;;;;;;10.07;4.13;;;;;;;;;;5076061;28;20399;-63
2022/11/11 11:05:40;;;;;;;8.17;4.43;;;;;;;;;;5068679;28;20491;-63
2022/11/11 11:08:30;;;;;;;7.97;3.83;;;;;;;;;;5064634;28;20170;-64
2022/11/11 11:11:15;;;;;;;9.13;4.13;;;;;;;;;;5065784;28;20454;-63
2022/11/11 11:14:12;;;;;;;10.00;4.57;;;;;;;;;;5070823;28;20056;-62
2022/11/11 11:16:55;;;;;;;9.93;4.37;;;;;;;;;;5070884;28;20020;-63
2022/11/11 11:19:39;;;;;;;11.03;4.20;;;;;;;;;;5071291;28;20024;-62
2022/11/11 11:22:23;;;;;;;13.03;4.50;;;;;;;;;;5070876;28;20037;-62
2022/11/11 11:25:07;;;;;;;11.37;4.27;;;;;;;;;;5070758;28;20016;-62
2022/11/11 11:27:51;;;;;;;9.97;3.67;;;;;;;;;;5069264;28;20028;-62
2022/11/11 11:30:38;;;;;;;12.03;4.27;;;;;;;;;;5070464;28;20016;-62
2022/11/11 11:33:21;;;;;;;10.20;4.30;;;;;;;;;;5070546;28;20110;-60
2022/11/11 11:36:05;;;;;;;8.93;4.50;;;;;;;;;;5070304;28;20039;-60
2022/11/11 11:38:52;;;;;;;10.37;4.03;;;;;;;;;;5066514;28;20048;-63
2022/11/11 11:41:36;;;;;;;7.90;4.13;;;;;;;;;;5074825;28;20021;-63
2022/11/11 11:44:19;;;;;;;11.73;4.20;;;;;;;;;;5070066;28;20384;-63
2022/11/11 11:47:03;;;;;;;11.80;4.40;;;;;;;;;;5070739;28;20427;-63
2022/11/11 11:49:47;;;;;;;10.03;4.63;;;;;;;;;;5070473;28;20027;-62
2022/11/11 11:52:31;;;;;;;9.37;3.93;;;;;;;;;;5070181;28;20392;-63
2022/11/11 11:55:14;;;;;;;9.00;4.20;;;;;;;;;;5070488;28;20095;-63
2022/11/11 11:57:58;;;;;;;11.57;4.80;;;;;;;;;;5070233;28;20056;-63
2022/11/11 12:00:51;;;;;;;8.50;4.13;;;;;;;;;;5069722;28;20020;-63
2022/11/11 12:03:35;;;;;;;9.70;4.40;;;;;;;;;;5067223;28;20337;-62
2022/11/11 12:06:19;;;;;;;8.40;3.77;;;;;;;;;;5070445;28;20024;-62
2022/11/11 12:09:02;;;;;;;10.60;3.90;;;;;;;;;;5070114;28;20137;-63
2022/11/11 12:11:46;;;;;;;8.13;3.83;;;;;;;;;;5066405;28;20032;-62
2022/11/11 12:14:30;;;;;;;8.17;3.60;;;;;;;;;;5070059;28;20023;-62
2022/11/11 12:17:14;;;;;;;8.23;3.90;;;;;;;;;;5070301;28;20017;-63
2022/11/11 12:19:57;;;;;;;8.50;3.33;;;;;;;;;;5069482;28;20023;-63
2022/11/11 12:22:41;;;;;;;8.23;3.77;;;;;;;;;;5070369;28;20025;-60
2022/11/11 12:25:25;;;;;;;9.80;3.47;;;;;;;;;;5077943;28;20039;-60
2022/11/11 12:28:09;;;;;;;8.53;3.90;;;;;;;;;;5069999;28;20023;-60
2022/11/11 12:30:52;;;;;;;7.80;3.40;;;;;;;;;;5070039;28;20033;-60
2022/11/11 12:33:36;;;;;;;7.43;3.03;;;;;;;;;;5069833;28;20036;-63
2022/11/11 12:36:20;;;;;;;9.97;3.40;;;;;;;;;;5070020;28;20028;-63
2022/11/11 12:39:04;;;;;;;10.17;3.27;;;;;;;;;;5069841;28;20031;-61
2022/11/11 12:41:48;;;;;;;7.67;2.57;;;;;;;;;;5069822;28;20028;-61
2022/11/11 12:44:32;;;;;;;9.93;2.90;;;;;;;;;;5070231;28;20013;-61
2022/11/11 12:47:15;;;;;;;10.73;2.80;;;;;;;;;;5069699;28;20084;-61
2022/11/11 12:49:59;;;;;;;8.07;2.97;;;;;;;;;;5071626;28;20024;-60
2022/11/11 12:52:43;;;;;;;7.23;2.53;;;;;;;;;;5073731;28;20028;-61
2022/11/11 12:55:27;;;;;;;12.33;3.10;;;;;;;;;;5071847;28;20353;-61
2022/11/11 12:58:10;;;;;;;8.60;3.40;;;;;;;;;;5073551;28;20021;-61
2022/11/11 13:00:54;;;;;;;9.23;3.30;;;;;;;;;;5071882;28;20556;-61
2022/11/11 13:03:38;;;;;;;7.82;2.90;;;;;;;;;;5073901;28;20059;-61
2022/11/11 13:06:22;;;;;;;9.13;2.67;;;;;;;;;;5073621;28;20032;-60
2022/11/11 13:09:05;;;;;;;9.23;2.90;;;;;;;;;;5072778;28;20021;-61
2022/11/11 13:11:49;;;;;;;8.57;2.85;;;;;;;;;;5070304;28;20070;-61
2022/11/11 13:14:33;;;;;;;7.65;3.35;;;;;;;;;;5073759;28;20437;-61
2022/11/11 13:17:17;;;;;;;9.90;2.90;;;;;;;;;;5073606;28;20037;-61
2022/11/11 13:20:02;;;;;;;10.40;3.13;;;;;;;;;;5073624;28;20016;-60
2022/11/11 13:22:46;;;;;;;10.77;3.10;;;;;;;;;;5070686;28;20025;-64
2022/11/11 13:25:30;;;;;;;7.30;3.03;;;;;;;;;;5077170;28;20388;-61
2022/11/11 13:28:13;;;;;;;9.73;3.20;;;;;;;;;;5072799;28;20035;-61
2022/11/11 13:30:57;;;;;;;11.43;3.80;;;;;;;;;;5073007;28;20013;-61
2022/11/11 13:33:41;;;;;;;14.33;4.50;;;;;;;;;;5075403;28;20059;-60
2022/11/11 13:36:25;;;;;;;10.23;3.40;;;;;;;;;;5061624;28;20032;-61
2022/11/11 13:39:09;;;;;;;8.37;3.10;;;;;;;;;;5054858;28;20571;-62
2022/11/11 13:41:53;;;;;;;5.90;2.70;;;;;;;;;;5050754;28;20472;-61
2022/11/11 13:44:37;;;;;;;10.10;3.93;;;;;;;;;;5051482;28;20116;-60
2022/11/11 13:47:20;;;;;;;8.43;2.80;;;;;;;;;;5051943;28;20032;-62
2022/11/11 13:50:04;;;;;;;9.30;3.03;;;;;;;;;;5063247;28;20039;-61
2022/11/11 13:52:48;;;;;;;7.17;2.40;;;;;;;;;;5065905;28;20546;-60
2022/11/11 13:55:32;;;;;;;10.47;3.17;;;;;;;;;;5053577;28;20036;-60
2022/11/11 13:58:16;;;;;;;9.33;3.30;;;;;;;;;;5054231;28;20435;-61
2022/11/11 14:01:00;;;;;;;10.13;3.30;;;;;;;;;;5065050;28;20032;-60
2022/11/11 14:03:44;;;;;;;9.97;3.37;;;;;;;;;;5068212;28;20107;-60
2022/11/11 14:06:27;;;;;;;7.90;2.80;;;;;;;;;;5067808;28;20095;-61
2022/11/11 14:09:11;;;;;;;9.77;2.83;;;;;;;;;;5065662;28;20527;-61
2022/11/11 14:11:55;;;;;;;7.47;2.93;;;;;;;;;;5066249;28;20082;-61
2022/11/11 14:14:39;;;;;;;7.83;2.77;;;;;;;;;;5056168;28;20029;-62
2022/11/11 14:17:23;;;;;;;9.10;3.13;;;;;;;;;;5078936;28;20035;-61
2022/11/11 14:20:07;;;;;;;10.27;2.80;;;;;;;;;;5068291;28;20020;-61
2022/11/11 14:22:50;;;;;;;9.00;2.90;;;;;;;;;;5068662;28;20111;-61
2022/11/11 14:25:34;;;;;;;8.07;3.03;;;;;;;;;;5068759;28;20060;-61
2022/11/11 14:28:18;;;;;;;7.80;2.53;;;;;;;;;;5057371;28;20476;-61
2022/11/11 14:31:02;;;;;;;10.93;2.90;;;;;;;;;;5064432;28;20095;-61
2022/11/11 14:33:46;;;;;;;9.47;3.00;;;;;;;;;;5061396;28;20478;-60
2022/11/11 14:36:32;;;;;;;9.03;2.83;;;;;;;;;;5061206;28;20586;-60
2022/11/11 14:39:16;;;;;;;8.70;2.80;;;;;;;;;;5056558;28;20517;-61
2022/11/11 14:42:00;;;;;;;8.83;2.90;;;;;;;;;;5060899;28;20135;-60
2022/11/11 14:44:44;;;;;;;11.07;2.93;;;;;;;;;;5057616;28;20094;-61
2022/11/11 14:47:28;;;;;;;7.03;3.13;;;;;;;;;;5052156;28;20067;-61
2022/11/11 14:50:12;;;;;;;9.50;2.70;;;;;;;;;;5057024;28;20510;-61
2022/11/11 14:53:01;;;;;;;9.67;2.80;;;;;;;;;;5058058;28;20047;-61
2022/11/11 14:55:45;;;;;;;9.23;2.83;;;;;;;;;;5065584;28;20028;-62
2022/11/11 14:58:29;;;;;;;5.55;2.50;;;;;;;;;;5049951;28;20032;-62
2022/11/11 15:01:13;;;;;;;7.23;2.67;;;;;;;;;;5062176;28;20063;-61
2022/11/11 15:03:57;;;;;;;7.00;2.67;;;;;;;;;;5065225;28;20033;-61
2022/11/11 15:06:41;;;;;;;21.83;10.43;;;;;;;;;;5063448;28;20498;-61
2022/11/11 15:09:25;;;;;;;11.67;4.00;;;;;;;;;;5057395;28;20151;-61
2022/11/11 15:12:09;;;;;;;10.30;3.80;;;;;;;;;;5066419;28;20075;-61
2022/11/11 15:14:52;;;;;;;9.20;3.23;;;;;;;;;;5057291;28;20034;-62
2022/11/11 15:17:36;;;;;;;8.03;3.30;;;;;;;;;;5064342;28;20032;-61
2022/11/11 15:20:20;;;;;;;9.20;3.40;;;;;;;;;;5061609;28;20071;-61
2022/11/11 15:23:04;;;;;;;9.20;3.50;;;;;;;;;;5064800;28;20082;-61
2022/11/11 15:25:47;;;;;;;11.40;4.00;;;;;;;;;;5063482;28;20037;-61
2022/11/11 15:28:31;;;;;;;11.47;3.73;;;;;;;;;;5062448;28;20031;-62
2022/11/11 15:31:15;;;;;;;7.70;3.27;;;;;;;;;;5067013;28;20021;-61
2022/11/11 15:33:59;;;;;;;7.43;2.87;;;;;;;;;;5069693;28;20032;-61
2022/11/11 15:36:43;;;;;;;9.40;3.37;;;;;;;;;;5061206;28;20431;-61
2022/11/11 15:39:27;;;;;;;8.67;3.63;;;;;;;;;;5056729;28;20071;-61
2022/11/11 15:42:11;;;;;;;9.87;3.80;;;;;;;;;;5058658;28;20028;-61
2022/11/11 15:44:54;;;;;;;13.33;3.80;;;;;;;;;;5064801;28;20032;-61
2022/11/11 15:47:38;;;;;;;11.97;4.17;;;;;;;;;;5063096;28;20028;-61
2022/11/11 15:50:22;;;;;;;14.07;3.97;;;;;;;;;;5062175;28;20020;-61
2022/11/11 15:53:06;;;;;;;11.67;3.73;;;;;;;;;;5065873;28;20119;-61
2022/11/11 15:55:50;;;;;;;13.77;4.17;;;;;;;;;;5061825;28;20039;-61
2022/11/11 15:58:34;;;;;;;7.57;3.60;;;;;;;;;;5063487;28;20067;-61
2022/11/11 16:01:17;;;;;;;10.27;3.97;;;;;;;;;;5065396;28;20454;-61
2022/11/11 16:04:01;;;;;;;11.60;4.00;;;;;;;;;;5064598;28;20367;-61
2022/11/11 16:06:45;;;;;;;10.33;3.53;;;;;;;;;;5064388;28;20067;-61
2022/11/11 16:09:29;;;;;;;8.10;3.40;;;;;;;;;;5057237;28;20052;-61
2022/11/11 16:12:13;;;;;;;8.80;3.37;;;;;;;;;;5064717;28;20127;-61
2022/11/11 16:14:57;;;;;;;11.67;3.93;;;;;;;;;;5062887;28;20464;-61
2022/11/11 16:17:41;;;;;;;10.60;3.70;;;;;;;;;;5062250;28;20032;-61
2022/11/11 16:20:24;;;;;;;8.97;3.87;;;;;;;;;;5063099;28;20032;-61
2022/11/11 16:23:08;;;;;;;8.43;4.20;;;;;;;;;;5062496;28;20710;-61
2022/11/11 16:25:52;;;;;;;13.33;4.70;;;;;;;;;;5064651;28;20055;-61
2022/11/11 16:28:36;;;;;;;7.77;3.70;;;;;;;;;;5057117;28;20033;-61
2022/11/11 16:31:19;;;;;;;8.37;3.20;;;;;;;;;;5060784;28;20036;-61
2022/11/11 16:34:03;;;;;;;10.23;3.70;;;;;;;;;;5061109;28;20438;-61
2022/11/11 16:36:47;;;;;;;9.60;3.67;;;;;;;;;;5067322;28;20436;-62
2022/11/11 16:39:31;;;;;;;9.63;3.60;;;;;;;;;;5062609;28;20111;-61
2022/11/11 16:42:15;;;;;;;13.83;3.90;;;;;;;;;;5064806;28;20044;-61
2022/11/11 16:44:58;;;;;;;12.87;3.67;;;;;;;;;;5062486;28;20025;-61
2022/11/11 16:47:42;;;;;;;10.67;3.50;;;;;;;;;;5066987;28;20112;-61
2022/11/11 16:50:26;;;;;;;12.23;3.83;;;;;;;;;;5069739;28;20091;-61
2022/11/11 16:53:10;;;;;;;9.60;3.17;;;;;;;;;;5068057;28;20480;-62
2022/11/11 16:55:54;;;;;;;7.70;3.50;;;;;;;;;;5062866;28;20028;-61
2022/11/11 16:58:40;;;;;;;6.57;2.90;;;;;;;;;;5064836;28;20041;-61
2022/11/11 17:01:25;;;;;;;7.07;3.20;;;;;;;;;;5058775;28;20032;-61
2022/11/11 17:04:08;;;;;;;8.47;3.80;;;;;;;;;;5069090;28;20070;-60
2022/11/11 17:06:55;;;;;;;8.03;3.90;;;;;;;;;;5064930;28;20050;-61
2022/11/11 17:09:39;;;;;;;10.70;3.50;;;;;;;;;;5066248;28;20154;-61
2022/11/11 17:12:23;;;;;;;7.30;3.70;;;;;;;;;;5069595;28;20047;-61
2022/11/11 17:15:07;;;;;;;9.13;3.60;;;;;;;;;;5068963;28;20024;-61
2022/11/11 17:17:51;;;;;;;9.03;4.10;;;;;;;;;;5074202;28;20035;-61
2022/11/11 17:20:35;;;;;;;15.47;4.00;;;;;;;;;;5064533;28;20036;-61
2022/11/11 17:23:19;;;;;;;10.23;4.40;;;;;;;;;;5069632;28;20395;-61
2022/11/11 17:26:03;;;;;;;12.00;4.20;;;;;;;;;;5060404;28;20033;-61
2022/11/11 17:28:47;;;;;;;9.27;4.13;;;;;;;;;;5060411;28;20491;-61
2022/11/11 17:31:31;;;;;;;13.00;4.27;;;;;;;;;;5065678;28;20066;-61
2022/11/11 17:34:15;;;;;;;12.17;4.30;;;;;;;;;;5060656;28;20056;-61
2022/11/11 17:36:58;;;;;;;15.13;4.93;;;;;;;;;;5069071;28;20024;-61